sensor_id;sensor_type;location;lat;lon;timestamp;temperature;humidity
66594;DHT22;53450;42.584;23.366;2024-01-15T00:00:34;-3.62;77.49
66594;DHT22;53450;42.584;23.366;2024-01-15T00:02:59;-3.57;77.84
66594;DHT22;53450;42.584;23.366;2024-01-15T00:05:25;-3.59;78.25
66594;DHT22;53450;42.584;23.366;2024-01-15T00:07:50;-3.67;78.11
66594;DHT22;53450;42.584;23.366;2024-01-15T00:10:16;-3.74;78.45
66594;DHT22;53450;42.584;23.366;2024-01-15T00:12:41;-3.78;78.60
66594;DHT22;53450;42.584;23.366;2024-01-15T00:15:07;-3.76;78.46
66594;DHT22;53450;42.584;23.366;2024-01-15T00:17:32;-3.80;78.38
66594;DHT22;53450;42.584;23.366;2024-01-15T00:19:58;-3.86;78.59
66594;DHT22;53450;42.584;23.366;2024-01-15T00:22:25;-3.78;78.57
66594;DHT22;53450;42.584;23.366;2024-01-15T00:24:51;-3.78;78.22
66594;DHT22;53450;42.584;23.366;2024-01-15T00:27:17;-3.81;78.18
66594;DHT22;53450;42.584;23.366;2024-01-15T00:29:42;-3.97;78.46
66594;DHT22;53450;42.584;23.366;2024-01-15T00:32:08;-4.02;79.01
66594;DHT22;53450;42.584;23.366;2024-01-15T00:34:34;-3.95;78.91
66594;DHT22;53450;42.584;23.366;2024-01-15T00:36:59;-4.15;78.95
66594;DHT22;53450;42.584;23.366;2024-01-15T00:39:25;-4.04;79.15
66594;DHT22;53450;42.584;23.366;2024-01-15T00:41:51;-4.05;79.17
66594;DHT22;53450;42.584;23.366;2024-01-15T00:44:16;-4.01;79.33
66594;DHT22;53450;42.584;23.366;2024-01-15T00:46:45;-4.02;79.10
66594;DHT22;53450;42.584;23.366;2024-01-15T00:49:12;-3.98;79.09
66594;DHT22;53450;42.584;23.366;2024-01-15T00:51:38;-4.02;78.94
66594;DHT22;53450;42.584;23.366;2024-01-15T00:54:04;-4.07;79.18
66594;DHT22;53450;42.584;23.366;2024-01-15T00:56:30;-3.95;79.49
66594;DHT22;53450;42.584;23.366;2024-01-15T00:58:55;-3.94;79.19
66594;DHT22;53450;42.584;23.366;2024-01-15T01:01:21;-3.87;79.21
66594;DHT22;53450;42.584;23.366;2024-01-15T01:03:46;-3.93;79.32
66594;DHT22;53450;42.584;23.366;2024-01-15T01:06:12;-3.93;79.55
66594;DHT22;53450;42.584;23.366;2024-01-15T01:08:39;-3.95;79.46
66594;DHT22;53450;42.584;23.366;2024-01-15T01:11:05;-3.88;79.75
66594;DHT22;53450;42.584;23.366;2024-01-15T01:13:32;-3.87;80.06
66594;DHT22;53450;42.584;23.366;2024-01-15T01:15:58;-3.80;79.57
66594;DHT22;53450;42.584;23.366;2024-01-15T01:18:24;-3.77;79.61
66594;DHT22;53450;42.584;23.366;2024-01-15T01:20:52;-3.81;79.26
66594;DHT22;53450;42.584;23.366;2024-01-15T01:23:17;-3.86;79.56
66594;DHT22;53450;42.584;23.366;2024-01-15T01:25:43;-3.81;79.15
66594;DHT22;53450;42.584;23.366;2024-01-15T01:28:08;-4.01;79.50
66594;DHT22;53450;42.584;23.366;2024-01-15T01:30:34;-3.83;79.70
66594;DHT22;53450;42.584;23.366;2024-01-15T01:33:00;-3.94;80.08
66594;DHT22;53450;42.584;23.366;2024-01-15T01:35:25;-4.01;80.27
66594;DHT22;53450;42.584;23.366;2024-01-15T01:37:51;-3.98;80.77
66594;DHT22;53450;42.584;23.366;2024-01-15T01:40:16;-3.81;79.59
66594;DHT22;53450;42.584;23.366;2024-01-15T01:42:42;-3.91;79.49
66594;DHT22;53450;42.584;23.366;2024-01-15T01:45:08;-3.87;79.89
66594;DHT22;53450;42.584;23.366;2024-01-15T01:47:34;-3.84;79.82
66594;DHT22;53450;42.584;23.366;2024-01-15T01:49:59;-3.83;79.40
66594;DHT22;53450;42.584;23.366;2024-01-15T01:52:26;-3.90;79.78
66594;DHT22;53450;42.584;23.366;2024-01-15T01:54:52;-3.88;80.25
66594;DHT22;53450;42.584;23.366;2024-01-15T01:57:18;-3.88;79.72
66594;DHT22;53450;42.584;23.366;2024-01-15T01:59:45;-3.94;79.83
66594;DHT22;53450;42.584;23.366;2024-01-15T02:02:11;-3.93;79.69
66594;DHT22;53450;42.584;23.366;2024-01-15T02:04:37;-3.95;79.54
66594;DHT22;53450;42.584;23.366;2024-01-15T02:07:03;-4.01;79.59
66594;DHT22;53450;42.584;23.366;2024-01-15T02:09:29;-4.05;79.77
66594;DHT22;53450;42.584;23.366;2024-01-15T02:11:55;-4.02;79.45
66594;DHT22;53450;42.584;23.366;2024-01-15T02:14:22;-4.15;79.57
66594;DHT22;53450;42.584;23.366;2024-01-15T02:16:48;-4.09;79.99
66594;DHT22;53450;42.584;23.366;2024-01-15T02:19:18;-3.93;79.47
66594;DHT22;53450;42.584;23.366;2024-01-15T02:21:44;-3.94;79.29
66594;DHT22;53450;42.584;23.366;2024-01-15T02:24:10;-3.88;79.11
66594;DHT22;53450;42.584;23.366;2024-01-15T02:26:36;-3.98;79.22
66594;DHT22;53450;42.584;23.366;2024-01-15T02:29:04;-3.91;79.06
66594;DHT22;53450;42.584;23.366;2024-01-15T02:31:30;-3.90;79.04
66594;DHT22;53450;42.584;23.366;2024-01-15T02:33:55;-3.88;79.12
66594;DHT22;53450;42.584;23.366;2024-01-15T02:36:21;-3.80;78.43
66594;DHT22;53450;42.584;23.366;2024-01-15T02:38:46;-3.81;78.59
66594;DHT22;53450;42.584;23.366;2024-01-15T02:41:12;-3.71;78.03
66594;DHT22;53450;42.584;23.366;2024-01-15T02:43:40;-3.83;78.23
66594;DHT22;53450;42.584;23.366;2024-01-15T02:46:06;-3.88;78.78
66594;DHT22;53450;42.584;23.366;2024-01-15T02:48:32;-3.86;79.18
66594;DHT22;53450;42.584;23.366;2024-01-15T02:50:58;-3.57;79.10
66594;DHT22;53450;42.584;23.366;2024-01-15T02:53:24;-3.52;79.38
66594;DHT22;53450;42.584;23.366;2024-01-15T02:55:50;-3.62;79.28
66594;DHT22;53450;42.584;23.366;2024-01-15T02:58:15;-3.60;79.09
66594;DHT22;53450;42.584;23.366;2024-01-15T03:00:41;-3.55;79.18
66594;DHT22;53450;42.584;23.366;2024-01-15T03:03:06;-3.55;79.61
66594;DHT22;53450;42.584;23.366;2024-01-15T03:05:32;-3.57;79.83
66594;DHT22;53450;42.584;23.366;2024-01-15T03:07:57;-3.56;80.29
66594;DHT22;53450;42.584;23.366;2024-01-15T03:10:23;-3.55;80.77
66594;DHT22;53450;42.584;23.366;2024-01-15T03:12:50;-3.43;80.93
66594;DHT22;53450;42.584;23.366;2024-01-15T03:15:19;-3.39;80.20
66594;DHT22;53450;42.584;23.366;2024-01-15T03:17:45;-3.45;80.72
66594;DHT22;53450;42.584;23.366;2024-01-15T03:20:11;-3.36;80.50
66594;DHT22;53450;42.584;23.366;2024-01-15T03:22:36;-3.34;80.72
66594;DHT22;53450;42.584;23.366;2024-01-15T03:25:03;-3.32;80.25
66594;DHT22;53450;42.584;23.366;2024-01-15T03:27:29;-3.35;80.08
66594;DHT22;53450;42.584;23.366;2024-01-15T03:29:55;-3.12;78.27
66594;DHT22;53450;42.584;23.366;2024-01-15T03:32:20;-3.15;78.52
66594;DHT22;53450;42.584;23.366;2024-01-15T03:34:46;-3.15;78.55
66594;DHT22;53450;42.584;23.366;2024-01-15T03:37:13;-3.08;78.30
66594;DHT22;53450;42.584;23.366;2024-01-15T03:39:40;-2.99;77.72
66594;DHT22;53450;42.584;23.366;2024-01-15T03:42:06;-3.02;77.85
66594;DHT22;53450;42.584;23.366;2024-01-15T03:44:32;-3.11;78.06
66594;DHT22;53450;42.584;23.366;2024-01-15T03:46:57;-3.02;77.97
66594;DHT22;53450;42.584;23.366;2024-01-15T03:49:23;-3.09;77.86
66594;DHT22;53450;42.584;23.366;2024-01-15T03:51:48;-3.12;77.90
66594;DHT22;53450;42.584;23.366;2024-01-15T03:54:14;-3.15;78.06
66594;DHT22;53450;42.584;23.366;2024-01-15T03:56:40;-3.22;78.40
66594;DHT22;53450;42.584;23.366;2024-01-15T03:59:05;-3.22;78.35
66594;DHT22;53450;42.584;23.366;2024-01-15T04:01:32;-3.31;78.72
66594;DHT22;53450;42.584;23.366;2024-01-15T04:03:58;-3.34;79.08
66594;DHT22;53450;42.584;23.366;2024-01-15T04:06:23;-3.43;79.36
66594;DHT22;53450;42.584;23.366;2024-01-15T04:08:49;-3.48;79.50
66594;DHT22;53450;42.584;23.366;2024-01-15T04:11:14;-3.43;79.96
66594;DHT22;53450;42.584;23.366;2024-01-15T04:13:40;-3.46;79.98
66594;DHT22;53450;42.584;23.366;2024-01-15T04:16:05;-3.50;80.10
66594;DHT22;53450;42.584;23.366;2024-01-15T04:18:31;-3.53;80.09
66594;DHT22;53450;42.584;23.366;2024-01-15T04:20:56;-3.53;80.38
66594;DHT22;53450;42.584;23.366;2024-01-15T04:23:22;-3.46;79.96
66594;DHT22;53450;42.584;23.366;2024-01-15T04:25:48;-3.45;79.36
66594;DHT22;53450;42.584;23.366;2024-01-15T04:28:13;-3.45;79.61
66594;DHT22;53450;42.584;23.366;2024-01-15T04:30:39;-3.43;78.99
66594;DHT22;53450;42.584;23.366;2024-01-15T04:33:07;-3.46;79.27
66594;DHT22;53450;42.584;23.366;2024-01-15T04:35:33;-3.46;79.06
66594;DHT22;53450;42.584;23.366;2024-01-15T04:37:59;-3.43;79.07
66594;DHT22;53450;42.584;23.366;2024-01-15T04:40:24;-3.50;79.14
66594;DHT22;53450;42.584;23.366;2024-01-15T04:42:53;-3.50;79.53
66594;DHT22;53450;42.584;23.366;2024-01-15T04:45:19;-3.55;79.10
66594;DHT22;53450;42.584;23.366;2024-01-15T04:47:48;-3.59;79.39
66594;DHT22;53450;42.584;23.366;2024-01-15T04:50:14;-3.60;79.49
66594;DHT22;53450;42.584;23.366;2024-01-15T04:52:39;-3.66;79.22
66594;DHT22;53450;42.584;23.366;2024-01-15T04:55:05;-3.84;79.50
66594;DHT22;53450;42.584;23.366;2024-01-15T04:57:31;-3.81;79.57
66594;DHT22;53450;42.584;23.366;2024-01-15T04:59:56;-3.87;79.47
66594;DHT22;53450;42.584;23.366;2024-01-15T05:02:22;-3.95;79.62
66594;DHT22;53450;42.584;23.366;2024-01-15T05:04:47;-3.84;79.29
66594;DHT22;53450;42.584;23.366;2024-01-15T05:07:13;-3.90;79.83
66594;DHT22;53450;42.584;23.366;2024-01-15T05:09:38;-3.80;79.72
66594;DHT22;53450;42.584;23.366;2024-01-15T05:12:04;-3.78;79.45
66594;DHT22;53450;42.584;23.366;2024-01-15T05:14:29;-3.77;79.78
66594;DHT22;53450;42.584;23.366;2024-01-15T05:16:55;-3.88;79.32
66594;DHT22;53450;42.584;23.366;2024-01-15T05:19:20;-3.76;79.35
66594;DHT22;53450;42.584;23.366;2024-01-15T05:22:20;-3.90;79.48
66594;DHT22;53450;42.584;23.366;2024-01-15T05:24:46;-3.76;79.77
66594;DHT22;53450;42.584;23.366;2024-01-15T05:27:12;-3.64;79.71
66594;DHT22;53450;42.584;23.366;2024-01-15T05:29:37;-3.66;79.37
66594;DHT22;53450;42.584;23.366;2024-01-15T05:32:03;-3.53;79.72
66594;DHT22;53450;42.584;23.366;2024-01-15T05:34:28;-3.50;79.98
66594;DHT22;53450;42.584;23.366;2024-01-15T05:36:54;-3.64;79.84
66594;DHT22;53450;42.584;23.366;2024-01-15T05:39:20;-3.64;80.32
66594;DHT22;53450;42.584;23.366;2024-01-15T05:41:45;-3.27;79.10
66594;DHT22;53450;42.584;23.366;2024-01-15T05:44:11;-3.27;78.60
66594;DHT22;53450;42.584;23.366;2024-01-15T05:46:36;-3.13;78.62
66594;DHT22;53450;42.584;23.366;2024-01-15T05:49:02;-3.19;78.40
66594;DHT22;53450;42.584;23.366;2024-01-15T05:51:27;-3.07;77.92
66594;DHT22;53450;42.584;23.366;2024-01-15T05:53:53;-3.05;77.60
66594;DHT22;53450;42.584;23.366;2024-01-15T05:56:18;-2.98;77.69
66594;DHT22;53450;42.584;23.366;2024-01-15T05:58:44;-2.90;76.84
66594;DHT22;53450;42.584;23.366;2024-01-15T06:01:09;-2.88;76.79
66594;DHT22;53450;42.584;23.366;2024-01-15T06:03:35;-2.90;76.59
66594;DHT22;53450;42.584;23.366;2024-01-15T06:06:00;-2.91;76.90
66594;DHT22;53450;42.584;23.366;2024-01-15T06:08:26;-2.81;76.27
66594;DHT22;53450;42.584;23.366;2024-01-15T06:10:53;-2.85;76.35
66594;DHT22;53450;42.584;23.366;2024-01-15T06:13:19;-2.91;76.70
66594;DHT22;53450;42.584;23.366;2024-01-15T06:15:44;-2.81;76.17
66594;DHT22;53450;42.584;23.366;2024-01-15T06:18:10;-2.74;76.10
66594;DHT22;53450;42.584;23.366;2024-01-15T06:20:35;-2.69;75.94
66594;DHT22;53450;42.584;23.366;2024-01-15T06:23:01;-2.61;75.79
66594;DHT22;53450;42.584;23.366;2024-01-15T06:25:26;-2.67;75.78
66594;DHT22;53450;42.584;23.366;2024-01-15T06:27:52;-2.57;75.87
66594;DHT22;53450;42.584;23.366;2024-01-15T06:30:21;-2.53;75.55
66594;DHT22;53450;42.584;23.366;2024-01-15T06:32:46;-2.32;75.26
66594;DHT22;53450;42.584;23.366;2024-01-15T06:35:12;-2.36;74.90
66594;DHT22;53450;42.584;23.366;2024-01-15T06:37:37;-2.12;74.49
66594;DHT22;53450;42.584;23.366;2024-01-15T06:40:03;-1.99;74.13
66594;DHT22;53450;42.584;23.366;2024-01-15T06:42:29;-1.94;74.36
66594;DHT22;53450;42.584;23.366;2024-01-15T06:44:55;-1.84;74.16
66594;DHT22;53450;42.584;23.366;2024-01-15T06:47:20;-1.66;73.14
66594;DHT22;53450;42.584;23.366;2024-01-15T06:49:46;-1.53;72.87
66594;DHT22;53450;42.584;23.366;2024-01-15T06:52:11;-1.36;69.82
66594;DHT22;53450;42.584;23.366;2024-01-15T06:54:37;-1.06;69.00
66594;DHT22;53450;42.584;23.366;2024-01-15T06:57:03;-0.82;68.35
66594;DHT22;53450;42.584;23.366;2024-01-15T06:59:29;-0.77;69.24
66594;DHT22;53450;42.584;23.366;2024-01-15T07:01:55;-0.77;68.15
66594;DHT22;53450;42.584;23.366;2024-01-15T07:04:21;-0.68;68.54
66594;DHT22;53450;42.584;23.366;2024-01-15T07:06:46;-0.58;67.86
66594;DHT22;53450;42.584;23.366;2024-01-15T07:09:13;-0.53;67.35
66594;DHT22;53450;42.584;23.366;2024-01-15T07:11:44;-0.57;67.67
66594;DHT22;53450;42.584;23.366;2024-01-15T07:14:10;-0.53;67.61
66594;DHT22;53450;42.584;23.366;2024-01-15T07:16:35;-0.64;68.19
66594;DHT22;53450;42.584;23.366;2024-01-15T07:19:01;-0.53;68.74
66594;DHT22;53450;42.584;23.366;2024-01-15T07:21:29;-0.56;67.92
66594;DHT22;53450;42.584;23.366;2024-01-15T07:23:55;-0.58;67.75
66594;DHT22;53450;42.584;23.366;2024-01-15T07:26:21;-0.41;67.74
66594;DHT22;53450;42.584;23.366;2024-01-15T07:28:46;-0.38;68.29
66594;DHT22;53450;42.584;23.366;2024-01-15T07:31:12;-0.34;68.23
66594;DHT22;53450;42.584;23.366;2024-01-15T07:33:38;-0.29;67.34
66594;DHT22;53450;42.584;23.366;2024-01-15T07:36:03;-0.36;67.33
66594;DHT22;53450;42.584;23.366;2024-01-15T07:38:29;-0.17;67.44
66594;DHT22;53450;42.584;23.366;2024-01-15T07:40:54;-0.20;68.08
66594;DHT22;53450;42.584;23.366;2024-01-15T07:43:20;-0.13;68.25
66594;DHT22;53450;42.584;23.366;2024-01-15T07:45:47;-0.12;68.06
66594;DHT22;53450;42.584;23.366;2024-01-15T07:48:13;-0.02;68.30
66594;DHT22;53450;42.584;23.366;2024-01-15T07:50:39;-0.03;68.30
66594;DHT22;53450;42.584;23.366;2024-01-15T07:53:05;-0.07;69.03
66594;DHT22;53450;42.584;23.366;2024-01-15T07:55:31;0.12;69.11
66594;DHT22;53450;42.584;23.366;2024-01-15T07:57:57;0.12;68.84
66594;DHT22;53450;42.584;23.366;2024-01-15T08:00:25;0.09;68.76
66594;DHT22;53450;42.584;23.366;2024-01-15T08:02:51;0.11;69.48
66594;DHT22;53450;42.584;23.366;2024-01-15T08:05:18;0.07;69.60
66594;DHT22;53450;42.584;23.366;2024-01-15T08:07:44;0.14;69.92
66594;DHT22;53450;42.584;23.366;2024-01-15T08:10:10;0.30;69.77
66594;DHT22;53450;42.584;23.366;2024-01-15T08:12:35;0.37;69.39
66594;DHT22;53450;42.584;23.366;2024-01-15T08:15:01;0.50;69.07
66594;DHT22;53450;42.584;23.366;2024-01-15T08:17:26;0.62;68.29
66594;DHT22;53450;42.584;23.366;2024-01-15T08:19:54;0.52;68.32
66594;DHT22;53450;42.584;23.366;2024-01-15T08:22:20;0.59;68.16
66594;DHT22;53450;42.584;23.366;2024-01-15T08:24:45;0.73;68.11
66594;DHT22;53450;42.584;23.366;2024-01-15T08:27:11;0.60;69.32
66594;DHT22;53450;42.584;23.366;2024-01-15T08:29:37;0.49;71.22
66594;DHT22;53450;42.584;23.366;2024-01-15T08:32:02;0.52;71.24
66594;DHT22;53450;42.584;23.366;2024-01-15T08:34:28;0.59;70.33
66594;DHT22;53450;42.584;23.366;2024-01-15T08:36:53;0.72;68.75
66594;DHT22;53450;42.584;23.366;2024-01-15T08:39:19;0.59;68.96
66594;DHT22;53450;42.584;23.366;2024-01-15T08:41:45;0.62;69.17
66594;DHT22;53450;42.584;23.366;2024-01-15T08:44:14;0.60;68.19
66594;DHT22;53450;42.584;23.366;2024-01-15T08:46:39;0.62;67.51
66594;DHT22;53450;42.584;23.366;2024-01-15T08:49:05;0.37;67.12
66594;DHT22;53450;42.584;23.366;2024-01-15T08:51:31;0.33;67.61
66594;DHT22;53450;42.584;23.366;2024-01-15T08:53:56;0.21;68.38
66594;DHT22;53450;42.584;23.366;2024-01-15T08:56:23;0.33;68.33
66594;DHT22;53450;42.584;23.366;2024-01-15T08:58:48;0.15;67.82
66594;DHT22;53450;42.584;23.366;2024-01-15T09:01:14;0.28;68.39
66594;DHT22;53450;42.584;23.366;2024-01-15T09:03:40;0.37;68.88
66594;DHT22;53450;42.584;23.366;2024-01-15T09:06:08;0.28;68.59
66594;DHT22;53450;42.584;23.366;2024-01-15T09:08:34;0.30;69.41
66594;DHT22;53450;42.584;23.366;2024-01-15T09:11:02;0.41;67.82
66594;DHT22;53450;42.584;23.366;2024-01-15T09:13:29;0.46;67.62
66594;DHT22;53450;42.584;23.366;2024-01-15T09:15:54;0.60;66.90
66594;DHT22;53450;42.584;23.366;2024-01-15T09:18:20;0.56;67.33
66594;DHT22;53450;42.584;23.366;2024-01-15T09:20:45;0.91;69.84
66594;DHT22;53450;42.584;23.366;2024-01-15T09:23:11;2.72;71.31
66594;DHT22;53450;42.584;23.366;2024-01-15T09:25:36;3.96;66.63
66594;DHT22;53450;42.584;23.366;2024-01-15T09:28:02;4.65;64.07
66594;DHT22;53450;42.584;23.366;2024-01-15T09:30:28;4.81;63.91
66594;DHT22;53450;42.584;23.366;2024-01-15T09:32:53;4.99;62.97
66594;DHT22;53450;42.584;23.366;2024-01-15T09:35:19;5.08;62.76
66594;DHT22;53450;42.584;23.366;2024-01-15T09:37:44;5.11;62.63
66594;DHT22;53450;42.584;23.366;2024-01-15T09:40:13;5.28;62.06
66594;DHT22;53450;42.584;23.366;2024-01-15T09:42:40;5.44;61.39
66594;DHT22;53450;42.584;23.366;2024-01-15T09:45:07;5.50;61.34
66594;DHT22;53450;42.584;23.366;2024-01-15T09:47:33;5.52;61.51
66594;DHT22;53450;42.584;23.366;2024-01-15T09:49:58;5.44;62.13
66594;DHT22;53450;42.584;23.366;2024-01-15T09:52:25;5.43;61.98
66594;DHT22;53450;42.584;23.366;2024-01-15T09:54:51;5.39;62.14
66594;DHT22;53450;42.584;23.366;2024-01-15T09:57:17;5.40;62.20
66594;DHT22;53450;42.584;23.366;2024-01-15T09:59:43;5.49;62.10
66594;DHT22;53450;42.584;23.366;2024-01-15T10:02:12;5.91;61.06
66594;DHT22;53450;42.584;23.366;2024-01-15T10:04:39;6.18;60.19
66594;DHT22;53450;42.584;23.366;2024-01-15T10:07:06;6.42;59.93
66594;DHT22;53450;42.584;23.366;2024-01-15T10:09:33;6.54;59.65
66594;DHT22;53450;42.584;23.366;2024-01-15T10:11:59;6.66;59.60
66594;DHT22;53450;42.584;23.366;2024-01-15T10:14:25;6.75;59.43
66594;DHT22;53450;42.584;23.366;2024-01-15T10:16:50;6.86;59.25
66594;DHT22;53450;42.584;23.366;2024-01-15T10:19:16;6.99;59.48
66594;DHT22;53450;42.584;23.366;2024-01-15T10:21:41;7.11;60.24
66594;DHT22;53450;42.584;23.366;2024-01-15T10:24:07;7.12;60.07
66594;DHT22;53450;42.584;23.366;2024-01-15T10:28:11;7.32;59.44
66594;DHT22;53450;42.584;23.366;2024-01-15T10:30:36;7.45;59.46
66594;DHT22;53450;42.584;23.366;2024-01-15T10:33:03;7.36;59.60
66594;DHT22;53450;42.584;23.366;2024-01-15T10:35:33;7.38;59.05
66594;DHT22;53450;42.584;23.366;2024-01-15T10:38:02;7.32;59.85
66594;DHT22;53450;42.584;23.366;2024-01-15T10:40:29;7.56;59.47
66594;DHT22;53450;42.584;23.366;2024-01-15T10:42:55;7.66;59.69
66594;DHT22;53450;42.584;23.366;2024-01-15T10:45:21;7.97;58.83
66594;DHT22;53450;42.584;23.366;2024-01-15T10:47:47;7.52;58.97
66594;DHT22;53450;42.584;23.366;2024-01-15T10:50:14;7.12;60.16
66594;DHT22;53450;42.584;23.366;2024-01-15T10:52:40;6.84;60.82
66594;DHT22;53450;42.584;23.366;2024-01-15T10:55:10;6.72;60.88
66594;DHT22;53450;42.584;23.366;2024-01-15T10:57:39;6.77;60.91
66594;DHT22;53450;42.584;23.366;2024-01-15T11:00:05;6.57;61.47
66594;DHT22;53450;42.584;23.366;2024-01-15T11:02:33;6.65;60.43
66594;DHT22;53450;42.584;23.366;2024-01-15T11:04:59;6.76;60.31
66594;DHT22;53450;42.584;23.366;2024-01-15T11:07:26;6.73;59.83
66594;DHT22;53450;42.584;23.366;2024-01-15T11:09:51;6.69;60.12
66594;DHT22;53450;42.584;23.366;2024-01-15T11:12:18;6.87;59.08
66594;DHT22;53450;42.584;23.366;2024-01-15T11:14:50;7.08;58.93
66594;DHT22;53450;42.584;23.366;2024-01-15T11:17:17;7.20;58.76
66594;DHT22;53450;42.584;23.366;2024-01-15T11:19:50;7.27;58.37
66594;DHT22;53450;42.584;23.366;2024-01-15T11:25:14;7.24;58.27
66594;DHT22;53450;42.584;23.366;2024-01-15T11:27:40;7.21;57.98
66594;DHT22;53450;42.584;23.366;2024-01-15T11:30:11;7.25;58.10
66594;DHT22;53450;42.584;23.366;2024-01-15T11:32:37;7.44;57.17
66594;DHT22;53450;42.584;23.366;2024-01-15T11:35:07;7.49;57.36
66594;DHT22;53450;42.584;23.366;2024-01-15T11:37:56;7.66;57.06
66594;DHT22;53450;42.584;23.366;2024-01-15T11:43:02;7.48;58.22
66594;DHT22;53450;42.584;23.366;2024-01-15T11:45:30;7.45;57.78
66594;DHT22;53450;42.584;23.366;2024-01-15T11:48:14;7.30;57.38
66594;DHT22;53450;42.584;23.366;2024-01-15T11:50:45;7.15;58.18
66594;DHT22;53450;42.584;23.366;2024-01-15T11:53:44;7.18;57.98
66594;DHT22;53450;42.584;23.366;2024-01-15T11:56:15;7.32;58.59
66594;DHT22;53450;42.584;23.366;2024-01-15T11:58:44;7.41;58.68
66594;DHT22;53450;42.584;23.366;2024-01-15T12:01:11;7.18;58.24
66594;DHT22;53450;42.584;23.366;2024-01-15T12:03:37;7.05;59.70
66594;DHT22;53450;42.584;23.366;2024-01-15T12:06:05;6.99;60.60
66594;DHT22;53450;42.584;23.366;2024-01-15T12:08:34;6.97;60.49
66594;DHT22;53450;42.584;23.366;2024-01-15T12:11:00;6.86;61.19
66594;DHT22;53450;42.584;23.366;2024-01-15T12:13:30;6.79;61.91
66594;DHT22;53450;42.584;23.366;2024-01-15T12:15:55;6.76;62.04
66594;DHT22;53450;42.584;23.366;2024-01-15T12:18:21;6.79;61.21
66594;DHT22;53450;42.584;23.366;2024-01-15T12:20:50;6.72;61.71
66594;DHT22;53450;42.584;23.366;2024-01-15T12:23:18;6.69;62.15
66594;DHT22;53450;42.584;23.366;2024-01-15T12:25:44;6.75;62.35
66594;DHT22;53450;42.584;23.366;2024-01-15T12:28:09;6.80;61.99
66594;DHT22;53450;42.584;23.366;2024-01-15T12:30:35;6.80;63.05
66594;DHT22;53450;42.584;23.366;2024-01-15T12:33:03;6.80;62.80
66594;DHT22;53450;42.584;23.366;2024-01-15T12:35:30;6.57;62.99
66594;DHT22;53450;42.584;23.366;2024-01-15T12:37:56;6.38;61.89
66594;DHT22;53450;42.584;23.366;2024-01-15T12:40:22;6.15;61.79
66594;DHT22;53450;42.584;23.366;2024-01-15T12:42:49;6.02;61.92
66594;DHT22;53450;42.584;23.366;2024-01-15T12:45:59;5.29;60.59
66594;DHT22;53450;42.584;23.366;2024-01-15T12:48:26;4.77;62.31
66594;DHT22;53450;42.584;23.366;2024-01-15T12:50:52;4.83;63.57
66594;DHT22;53450;42.584;23.366;2024-01-15T12:53:17;4.88;64.51
66594;DHT22;53450;42.584;23.366;2024-01-15T12:55:43;4.98;64.61
66594;DHT22;53450;42.584;23.366;2024-01-15T12:58:08;5.09;66.41
66594;DHT22;53450;42.584;23.366;2024-01-15T13:00:34;5.12;66.58
66594;DHT22;53450;42.584;23.366;2024-01-15T13:03:00;5.09;66.27
66594;DHT22;53450;42.584;23.366;2024-01-15T13:05:29;5.02;66.22
66594;DHT22;53450;42.584;23.366;2024-01-15T13:07:56;5.13;66.63
66594;DHT22;53450;42.584;23.366;2024-01-15T13:12:23;4.89;67.21
66594;DHT22;53450;42.584;23.366;2024-01-15T13:14:48;5.07;66.43
66594;DHT22;53450;42.584;23.366;2024-01-15T13:17:14;5.19;66.39
66594;DHT22;53450;42.584;23.366;2024-01-15T13:19:40;5.42;65.66
66594;DHT22;53450;42.584;23.366;2024-01-15T13:22:05;5.43;66.85
66594;DHT22;53450;42.584;23.366;2024-01-15T13:24:35;5.44;65.99
66594;DHT22;53450;42.584;23.366;2024-01-15T13:27:02;5.52;66.09
66594;DHT22;53450;42.584;23.366;2024-01-15T13:29:29;5.56;66.49
66594;DHT22;53450;42.584;23.366;2024-01-15T13:31:55;5.57;66.61
66594;DHT22;53450;42.584;23.366;2024-01-15T13:34:20;5.47;66.26
66594;DHT22;53450;42.584;23.366;2024-01-15T13:36:46;5.40;65.61
66594;DHT22;53450;42.584;23.366;2024-01-15T13:39:11;5.21;65.37
66594;DHT22;53450;42.584;23.366;2024-01-15T13:41:37;5.35;66.82
66594;DHT22;53450;42.584;23.366;2024-01-15T13:44:03;5.18;63.84
66594;DHT22;53450;42.584;23.366;2024-01-15T13:46:29;5.26;64.08
66594;DHT22;53450;42.584;23.366;2024-01-15T13:48:57;5.07;63.14
66594;DHT22;53450;42.584;23.366;2024-01-15T13:51:23;5.02;63.28
66594;DHT22;53450;42.584;23.366;2024-01-15T13:53:49;4.99;64.76
66594;DHT22;53450;42.584;23.366;2024-01-15T13:56:16;4.85;64.07
66594;DHT22;53450;42.584;23.366;2024-01-15T13:58:41;4.68;63.82
66594;DHT22;53450;42.584;23.366;2024-01-15T14:01:08;4.64;64.20
66594;DHT22;53450;42.584;23.366;2024-01-15T14:03:33;4.56;64.10
66594;DHT22;53450;42.584;23.366;2024-01-15T14:06:00;4.64;64.97
66594;DHT22;53450;42.584;23.366;2024-01-15T14:08:25;4.61;64.79
66594;DHT22;53450;42.584;23.366;2024-01-15T14:10:51;4.63;64.45
66594;DHT22;53450;42.584;23.366;2024-01-15T14:13:17;4.64;65.01
66594;DHT22;53450;42.584;23.366;2024-01-15T14:15:42;4.67;65.84
66594;DHT22;53450;42.584;23.366;2024-01-15T14:18:08;4.63;65.13
66594;DHT22;53450;42.584;23.366;2024-01-15T14:20:34;4.61;66.11
66594;DHT22;53450;42.584;23.366;2024-01-15T14:22:59;4.60;66.41
66594;DHT22;53450;42.584;23.366;2024-01-15T14:25:25;4.65;66.41
66594;DHT22;53450;42.584;23.366;2024-01-15T14:27:50;4.68;66.77
66594;DHT22;53450;42.584;23.366;2024-01-15T14:30:16;4.70;67.07
66594;DHT22;53450;42.584;23.366;2024-01-15T14:32:42;4.65;66.55
66594;DHT22;53450;42.584;23.366;2024-01-15T14:35:09;4.57;66.18
66594;DHT22;53450;42.584;23.366;2024-01-15T14:37:38;4.54;66.40
66594;DHT22;53450;42.584;23.366;2024-01-15T14:40:08;4.53;65.92
66594;DHT22;53450;42.584;23.366;2024-01-15T14:42:35;4.54;66.60
66594;DHT22;53450;42.584;23.366;2024-01-15T14:45:02;4.44;66.67
66594;DHT22;53450;42.584;23.366;2024-01-15T14:47:31;4.50;66.54
66594;DHT22;53450;42.584;23.366;2024-01-15T14:49:56;4.49;67.50
66594;DHT22;53450;42.584;23.366;2024-01-15T14:52:23;4.42;67.58
66594;DHT22;53450;42.584;23.366;2024-01-15T14:54:49;4.32;68.22
66594;DHT22;53450;42.584;23.366;2024-01-15T14:57:14;4.30;67.99
66594;DHT22;53450;42.584;23.366;2024-01-15T14:59:40;4.20;68.56
66594;DHT22;53450;42.584;23.366;2024-01-15T15:02:06;4.44;69.00
66594;DHT22;53450;42.584;23.366;2024-01-15T15:04:32;4.70;68.46
66594;DHT22;53450;42.584;23.366;2024-01-15T15:06:58;4.83;68.33
66594;DHT22;53450;42.584;23.366;2024-01-15T15:09:23;4.78;68.00
66594;DHT22;53450;42.584;23.366;2024-01-15T15:11:49;4.95;67.61
66594;DHT22;53450;42.584;23.366;2024-01-15T15:14:14;5.02;67.30
66594;DHT22;53450;42.584;23.366;2024-01-15T15:16:40;4.84;67.61
66594;DHT22;53450;42.584;23.366;2024-01-15T15:19:05;4.89;67.92
66594;DHT22;53450;42.584;23.366;2024-01-15T15:21:31;4.95;67.97
66594;DHT22;53450;42.584;23.366;2024-01-15T15:23:56;4.92;67.44
66594;DHT22;53450;42.584;23.366;2024-01-15T15:26:22;4.73;66.64